sensor_id;sensor_type;location;lat;lon;timestamp;P1;durP1;ratioP1;P2;durP2;ratioP2
65599;SDS011;52272;-29.642;-50.764;2022-10-26T00:01:21;4.75;;;2.67;;
65599;SDS011;52272;-29.642;-50.764;2022-10-26T00:03:53;3.63;;;2.47;;
65599;SDS011;52272;-29.642;-50.764;2022-10-26T00:06:25;3.58;;;2.40;;
65599;SDS011;52272;-29.642;-50.764;2022-10-26T00:08:59;3.88;;;2.42;;
65599;SDS011;52272;-29.642;-50.764;2022-10-26T00:11:28;4.85;;;2.72;;
65599;SDS011;52272;-29.642;-50.764;2022-10-26T00:13:59;6.43;;;2.80;;
65599;SDS011;52272;-29.642;-50.764;2022-10-26T00:16:29;4.50;;;2.60;;
65599;SDS011;52272;-29.642;-50.764;2022-10-26T00:19:00;10.45;;;2.92;;
65599;SDS011;52272;-29.642;-50.764;2022-10-26T00:21:30;5.53;;;2.80;;
65599;SDS011;52272;-29.642;-50.764;2022-10-26T00:24:01;3.90;;;2.72;;
65599;SDS011;52272;-29.642;-50.764;2022-10-26T00:26:31;6.40;;;3.03;;
65599;SDS011;52272;-29.642;-50.764;2022-10-26T00:29:02;7.00;;;2.95;;
65599;SDS011;52272;-29.642;-50.764;2022-10-26T00:31:32;3.50;;;3.10;;
65599;SDS011;52272;-29.642;-50.764;2022-10-26T00:34:03;7.60;;;3.10;;
65599;SDS011;52272;-29.642;-50.764;2022-10-26T00:36:36;7.15;;;3.10;;
65599;SDS011;52272;-29.642;-50.764;2022-10-26T00:39:09;6.35;;;3.33;;
65599;SDS011;52272;-29.642;-50.764;2022-10-26T00:41:44;8.65;;;3.40;;
65599;SDS011;52272;-29.642;-50.764;2022-10-26T00:50:00;5.72;;;3.08;;
65599;SDS011;52272;-29.642;-50.764;2022-10-26T00:52:34;7.65;;;3.83;;
65599;SDS011;52272;-29.642;-50.764;2022-10-26T00:55:06;6.22;;;3.28;;
65599;SDS011;52272;-29.642;-50.764;2022-10-26T00:57:37;4.07;;;2.80;;
65599;SDS011;52272;-29.642;-50.764;2022-10-26T01:00:08;4.93;;;3.10;;
65599;SDS011;52272;-29.642;-50.764;2022-10-26T01:05:08;4.95;;;2.90;;
65599;SDS011;52272;-29.642;-50.764;2022-10-26T01:07:42;7.50;;;3.50;;
65599;SDS011;52272;-29.642;-50.764;2022-10-26T01:10:14;4.47;;;3.00;;
65599;SDS011;52272;-29.642;-50.764;2022-10-26T01:12:46;6.63;;;3.10;;
65599;SDS011;52272;-29.642;-50.764;2022-10-26T01:15:17;11.05;;;3.80;;
65599;SDS011;52272;-29.642;-50.764;2022-10-26T01:17:54;5.78;;;3.40;;
65599;SDS011;52272;-29.642;-50.764;2022-10-26T01:20:44;6.60;;;2.88;;
65599;SDS011;52272;-29.642;-50.764;2022-10-26T01:23:41;8.05;;;3.42;;
65599;SDS011;52272;-29.642;-50.764;2022-10-26T01:32:44;7.22;;;3.53;;
65599;SDS011;52272;-29.642;-50.764;2022-10-26T01:44:06;7.32;;;4.00;;
65599;SDS011;52272;-29.642;-50.764;2022-10-26T01:46:42;11.65;;;4.18;;
65599;SDS011;52272;-29.642;-50.764;2022-10-26T01:49:16;9.30;;;4.57;;
65599;SDS011;52272;-29.642;-50.764;2022-10-26T01:51:54;9.65;;;4.13;;
65599;SDS011;52272;-29.642;-50.764;2022-10-26T01:54:24;8.27;;;4.50;;
65599;SDS011;52272;-29.642;-50.764;2022-10-26T01:56:55;7.60;;;4.55;;
65599;SDS011;52272;-29.642;-50.764;2022-10-26T02:02:34;8.63;;;4.93;;
65599;SDS011;52272;-29.642;-50.764;2022-10-26T02:13:41;9.38;;;4.32;;
65599;SDS011;52272;-29.642;-50.764;2022-10-26T02:16:18;12.23;;;4.78;;
65599;SDS011;52272;-29.642;-50.764;2022-10-26T02:19:07;7.88;;;4.68;;
65599;SDS011;52272;-29.642;-50.764;2022-10-26T02:22:09;11.93;;;4.47;;
65599;SDS011;52272;-29.642;-50.764;2022-10-26T02:24:40;6.72;;;4.35;;
65599;SDS011;52272;-29.642;-50.764;2022-10-26T02:27:16;9.10;;;4.93;;
65599;SDS011;52272;-29.642;-50.764;2022-10-26T02:29:54;9.10;;;4.75;;
65599;SDS011;52272;-29.642;-50.764;2022-10-26T02:32:26;6.72;;;4.43;;
65599;SDS011;52272;-29.642;-50.764;2022-10-26T02:35:02;7.55;;;5.10;;
65599;SDS011;52272;-29.642;-50.764;2022-10-26T02:37:37;9.30;;;5.35;;
65599;SDS011;52272;-29.642;-50.764;2022-10-26T02:40:10;10.20;;;5.50;;
65599;SDS011;52272;-29.642;-50.764;2022-10-26T02:42:44;10.27;;;5.10;;
65599;SDS011;52272;-29.642;-50.764;2022-10-26T02:45:16;7.20;;;4.90;;
65599;SDS011;52272;-29.642;-50.764;2022-10-26T02:47:51;8.55;;;5.13;;
65599;SDS011;52272;-29.642;-50.764;2022-10-26T02:50:28;10.57;;;4.90;;
65599;SDS011;52272;-29.642;-50.764;2022-10-26T02:53:08;15.13;;;6.13;;
65599;SDS011;52272;-29.642;-50.764;2022-10-26T02:55:47;9.77;;;5.60;;
65599;SDS011;52272;-29.642;-50.764;2022-10-26T02:58:28;14.48;;;5.75;;
65599;SDS011;52272;-29.642;-50.764;2022-10-26T03:01:02;12.75;;;6.20;;
65599;SDS011;52272;-29.642;-50.764;2022-10-26T03:03:32;9.63;;;5.82;;
65599;SDS011;52272;-29.642;-50.764;2022-10-26T03:06:03;9.77;;;6.18;;
65599;SDS011;52272;-29.642;-50.764;2022-10-26T03:08:33;9.85;;;5.43;;
65599;SDS011;52272;-29.642;-50.764;2022-10-26T03:13:34;15.02;;;6.32;;
65599;SDS011;52272;-29.642;-50.764;2022-10-26T03:16:04;11.38;;;6.43;;
65599;SDS011;52272;-29.642;-50.764;2022-10-26T03:18:34;10.85;;;5.82;;
65599;SDS011;52272;-29.642;-50.764;2022-10-26T03:21:04;11.43;;;6.30;;
65599;SDS011;52272;-29.642;-50.764;2022-10-26T03:23:35;8.52;;;6.10;;
65599;SDS011;52272;-29.642;-50.764;2022-10-26T03:26:05;9.73;;;6.35;;
65599;SDS011;52272;-29.642;-50.764;2022-10-26T03:28:35;10.93;;;6.03;;
65599;SDS011;52272;-29.642;-50.764;2022-10-26T03:31:05;12.85;;;5.95;;
65599;SDS011;52272;-29.642;-50.764;2022-10-26T03:33:36;13.32;;;6.20;;
65599;SDS011;52272;-29.642;-50.764;2022-10-26T03:36:06;10.93;;;6.28;;
65599;SDS011;52272;-29.642;-50.764;2022-10-26T03:38:37;13.18;;;6.75;;
65599;SDS011;52272;-29.642;-50.764;2022-10-26T03:41:07;14.43;;;7.10;;
65599;SDS011;52272;-29.642;-50.764;2022-10-26T03:43:37;13.93;;;7.68;;
65599;SDS011;52272;-29.642;-50.764;2022-10-26T03:46:07;10.82;;;7.30;;
65599;SDS011;52272;-29.642;-50.764;2022-10-26T03:48:38;9.98;;;7.03;;
65599;SDS011;52272;-29.642;-50.764;2022-10-26T03:51:08;11.65;;;7.15;;
65599;SDS011;52272;-29.642;-50.764;2022-10-26T03:53:38;14.50;;;7.55;;
65599;SDS011;52272;-29.642;-50.764;2022-10-26T03:56:08;11.30;;;7.40;;
65599;SDS011;52272;-29.642;-50.764;2022-10-26T03:58:38;11.60;;;7.43;;
65599;SDS011;52272;-29.642;-50.764;2022-10-26T04:01:09;14.68;;;7.70;;
65599;SDS011;52272;-29.642;-50.764;2022-10-26T04:03:39;13.43;;;8.18;;
65599;SDS011;52272;-29.642;-50.764;2022-10-26T04:06:09;14.75;;;8.88;;
65599;SDS011;52272;-29.642;-50.764;2022-10-26T04:08:39;13.70;;;8.07;;
65599;SDS011;52272;-29.642;-50.764;2022-10-26T04:11:09;12.00;;;6.97;;
65599;SDS011;52272;-29.642;-50.764;2022-10-26T04:13:40;10.55;;;6.90;;
65599;SDS011;52272;-29.642;-50.764;2022-10-26T04:16:10;14.40;;;7.60;;
65599;SDS011;52272;-29.642;-50.764;2022-10-26T04:18:40;12.95;;;7.88;;
65599;SDS011;52272;-29.642;-50.764;2022-10-26T04:21:10;15.88;;;8.77;;
65599;SDS011;52272;-29.642;-50.764;2022-10-26T04:23:40;19.52;;;10.88;;
65599;SDS011;52272;-29.642;-50.764;2022-10-26T04:26:12;18.40;;;10.35;;
65599;SDS011;52272;-29.642;-50.764;2022-10-26T04:28:44;18.92;;;10.43;;
65599;SDS011;52272;-29.642;-50.764;2022-10-26T04:31:14;20.85;;;12.27;;
65599;SDS011;52272;-29.642;-50.764;2022-10-26T04:33:45;20.42;;;11.00;;
65599;SDS011;52272;-29.642;-50.764;2022-10-26T04:36:15;17.70;;;10.02;;
65599;SDS011;52272;-29.642;-50.764;2022-10-26T04:38:46;14.07;;;9.60;;
65599;SDS011;52272;-29.642;-50.764;2022-10-26T04:41:18;18.42;;;9.95;;
65599;SDS011;52272;-29.642;-50.764;2022-10-26T04:43:49;21.40;;;11.35;;
65599;SDS011;52272;-29.642;-50.764;2022-10-26T04:46:22;20.02;;;11.93;;
65599;SDS011;52272;-29.642;-50.764;2022-10-26T04:48:52;23.33;;;13.10;;
65599;SDS011;52272;-29.642;-50.764;2022-10-26T04:51:23;25.45;;;12.20;;
65599;SDS011;52272;-29.642;-50.764;2022-10-26T04:53:53;22.00;;;11.45;;
65599;SDS011;52272;-29.642;-50.764;2022-10-26T04:56:24;22.35;;;13.45;;
65599;SDS011;52272;-29.642;-50.764;2022-10-26T04:58:54;17.27;;;9.88;;
65599;SDS011;52272;-29.642;-50.764;2022-10-26T05:01:24;15.43;;;9.60;;
65599;SDS011;52272;-29.642;-50.764;2022-10-26T05:03:54;16.65;;;9.80;;
65599;SDS011;52272;-29.642;-50.764;2022-10-26T05:06:25;19.98;;;11.25;;
65599;SDS011;52272;-29.642;-50.764;2022-10-26T05:08:55;18.33;;;11.32;;
65599;SDS011;52272;-29.642;-50.764;2022-10-26T05:11:25;19.40;;;11.40;;
65599;SDS011;52272;-29.642;-50.764;2022-10-26T05:13:55;20.02;;;12.23;;
65599;SDS011;52272;-29.642;-50.764;2022-10-26T05:16:25;21.63;;;12.98;;
65599;SDS011;52272;-29.642;-50.764;2022-10-26T05:18:58;21.98;;;12.82;;
65599;SDS011;52272;-29.642;-50.764;2022-10-26T05:21:30;20.73;;;11.68;;
65599;SDS011;52272;-29.642;-50.764;2022-10-26T05:24:01;16.13;;;10.45;;
65599;SDS011;52272;-29.642;-50.764;2022-10-26T05:26:38;17.55;;;10.20;;
65599;SDS011;52272;-29.642;-50.764;2022-10-26T05:29:08;23.00;;;10.52;;
65599;SDS011;52272;-29.642;-50.764;2022-10-26T05:31:39;14.65;;;9.68;;
65599;SDS011;52272;-29.642;-50.764;2022-10-26T05:34:09;19.88;;;10.45;;
65599;SDS011;52272;-29.642;-50.764;2022-10-26T05:36:39;21.08;;;12.57;;
65599;SDS011;52272;-29.642;-50.764;2022-10-26T05:39:09;27.05;;;14.68;;
65599;SDS011;52272;-29.642;-50.764;2022-10-26T05:41:40;26.33;;;14.48;;
65599;SDS011;52272;-29.642;-50.764;2022-10-26T05:44:10;26.27;;;14.00;;
65599;SDS011;52272;-29.642;-50.764;2022-10-26T05:46:40;24.27;;;13.73;;
65599;SDS011;52272;-29.642;-50.764;2022-10-26T05:49:10;28.08;;;14.45;;
65599;SDS011;52272;-29.642;-50.764;2022-10-26T05:51:41;23.58;;;14.00;;
65599;SDS011;52272;-29.642;-50.764;2022-10-26T05:54:11;26.00;;;13.68;;
65599;SDS011;52272;-29.642;-50.764;2022-10-26T05:56:41;28.38;;;13.88;;
65599;SDS011;52272;-29.642;-50.764;2022-10-26T05:59:13;21.52;;;11.93;;
65599;SDS011;52272;-29.642;-50.764;2022-10-26T06:04:35;24.60;;;13.57;;
65599;SDS011;52272;-29.642;-50.764;2022-10-26T06:07:13;29.48;;;13.35;;
65599;SDS011;52272;-29.642;-50.764;2022-10-26T06:09:45;26.88;;;14.40;;
65599;SDS011;52272;-29.642;-50.764;2022-10-26T06:12:16;27.60;;;14.75;;
65599;SDS011;52272;-29.642;-50.764;2022-10-26T06:14:47;28.05;;;13.95;;
65599;SDS011;52272;-29.642;-50.764;2022-10-26T06:17:39;29.85;;;15.30;;
65599;SDS011;52272;-29.642;-50.764;2022-10-26T06:20:26;27.10;;;12.98;;
65599;SDS011;52272;-29.642;-50.764;2022-10-26T06:25:58;23.55;;;12.70;;
65599;SDS011;52272;-29.642;-50.764;2022-10-26T06:31:50;30.45;;;13.82;;
65599;SDS011;52272;-29.642;-50.764;2022-10-26T06:34:25;31.83;;;14.63;;
65599;SDS011;52272;-29.642;-50.764;2022-10-26T06:37:01;29.50;;;14.50;;
65599;SDS011;52272;-29.642;-50.764;2022-10-26T06:39:37;24.17;;;12.73;;
65599;SDS011;52272;-29.642;-50.764;2022-10-26T06:42:12;23.58;;;13.35;;
65599;SDS011;52272;-29.642;-50.764;2022-10-26T06:44:43;27.52;;;13.93;;
65599;SDS011;52272;-29.642;-50.764;2022-10-26T06:47:17;23.17;;;13.20;;
65599;SDS011;52272;-29.642;-50.764;2022-10-26T06:52:55;23.67;;;13.10;;
65599;SDS011;52272;-29.642;-50.764;2022-10-26T06:55:41;21.80;;;12.40;;
65599;SDS011;52272;-29.642;-50.764;2022-10-26T06:58:15;20.08;;;11.75;;
65599;SDS011;52272;-29.642;-50.764;2022-10-26T07:00:47;18.10;;;11.40;;
65599;SDS011;52272;-29.642;-50.764;2022-10-26T07:03:20;17.45;;;10.07;;
65599;SDS011;52272;-29.642;-50.764;2022-10-26T07:05:51;19.98;;;11.43;;
65599;SDS011;52272;-29.642;-50.764;2022-10-26T07:10:50;20.35;;;11.60;;
65599;SDS011;52272;-29.642;-50.764;2022-10-26T07:13:20;22.50;;;12.48;;
65599;SDS011;52272;-29.642;-50.764;2022-10-26T07:18:20;21.45;;;11.68;;
65599;SDS011;52272;-29.642;-50.764;2022-10-26T07:20:50;18.35;;;11.90;;
65599;SDS011;52272;-29.642;-50.764;2022-10-26T07:23:21;21.17;;;11.10;;
65599;SDS011;52272;-29.642;-50.764;2022-10-26T07:25:51;19.92;;;10.65;;
65599;SDS011;52272;-29.642;-50.764;2022-10-26T07:28:22;20.50;;;11.13;;
65599;SDS011;52272;-29.642;-50.764;2022-10-26T07:30:52;24.05;;;12.65;;
65599;SDS011;52272;-29.642;-50.764;2022-10-26T07:33:23;17.50;;;10.60;;
65599;SDS011;52272;-29.642;-50.764;2022-10-26T07:35:57;18.70;;;10.75;;
65599;SDS011;52272;-29.642;-50.764;2022-10-26T07:38:28;21.63;;;12.25;;
65599;SDS011;52272;-29.642;-50.764;2022-10-26T07:40:58;22.75;;;13.23;;
65599;SDS011;52272;-29.642;-50.764;2022-10-26T07:43:33;27.83;;;13.20;;
65599;SDS011;52272;-29.642;-50.764;2022-10-26T07:46:06;25.40;;;13.43;;
65599;SDS011;52272;-29.642;-50.764;2022-10-26T07:51:07;23.60;;;12.70;;
65599;SDS011;52272;-29.642;-50.764;2022-10-26T07:53:38;24.58;;;12.18;;
65599;SDS011;52272;-29.642;-50.764;2022-10-26T07:56:08;24.92;;;12.98;;
65599;SDS011;52272;-29.642;-50.764;2022-10-26T07:58:42;17.20;;;10.27;;
65599;SDS011;52272;-29.642;-50.764;2022-10-26T08:01:12;21.27;;;11.68;;
65599;SDS011;52272;-29.642;-50.764;2022-10-26T08:03:45;23.23;;;11.40;;
65599;SDS011;52272;-29.642;-50.764;2022-10-26T08:06:16;21.77;;;11.10;;
65599;SDS011;52272;-29.642;-50.764;2022-10-26T08:08:46;16.20;;;9.68;;
65599;SDS011;52272;-29.642;-50.764;2022-10-26T08:11:16;17.30;;;10.02;;
65599;SDS011;52272;-29.642;-50.764;2022-10-26T08:13:46;13.77;;;9.40;;
65599;SDS011;52272;-29.642;-50.764;2022-10-26T08:16:20;14.80;;;8.85;;
65599;SDS011;52272;-29.642;-50.764;2022-10-26T08:18:51;13.15;;;8.25;;
65599;SDS011;52272;-29.642;-50.764;2022-10-26T08:24:06;9.80;;;7.05;;
65599;SDS011;52272;-29.642;-50.764;2022-10-26T08:26:37;14.60;;;7.70;;
65599;SDS011;52272;-29.642;-50.764;2022-10-26T08:29:10;12.30;;;8.10;;
65599;SDS011;52272;-29.642;-50.764;2022-10-26T08:31:41;12.93;;;8.10;;
65599;SDS011;52272;-29.642;-50.764;2022-10-26T08:34:11;12.77;;;8.57;;
65599;SDS011;52272;-29.642;-50.764;2022-10-26T08:36:41;13.90;;;8.65;;
65599;SDS011;52272;-29.642;-50.764;2022-10-26T08:39:11;15.52;;;9.13;;
65599;SDS011;52272;-29.642;-50.764;2022-10-26T08:41:43;12.77;;;9.07;;
65599;SDS011;52272;-29.642;-50.764;2022-10-26T08:47:12;13.90;;;8.23;;
65599;SDS011;52272;-29.642;-50.764;2022-10-26T08:49:53;13.80;;;8.55;;
65599;SDS011;52272;-29.642;-50.764;2022-10-26T08:52:52;13.50;;;7.30;;
65599;SDS011;52272;-29.642;-50.764;2022-10-26T08:55:46;12.20;;;7.53;;
65599;SDS011;52272;-29.642;-50.764;2022-10-26T08:58:42;9.02;;;6.70;;
65599;SDS011;52272;-29.642;-50.764;2022-10-26T09:01:20;14.30;;;7.13;;
65599;SDS011;52272;-29.642;-50.764;2022-10-26T09:03:50;11.88;;;7.32;;
65599;SDS011;52272;-29.642;-50.764;2022-10-26T09:06:26;12.95;;;6.60;;
65599;SDS011;52272;-29.642;-50.764;2022-10-26T09:09:18;9.43;;;6.53;;
65599;SDS011;52272;-29.642;-50.764;2022-10-26T09:12:08;9.85;;;6.65;;
65599;SDS011;52272;-29.642;-50.764;2022-10-26T09:17:53;8.68;;;5.57;;
65599;SDS011;52272;-29.642;-50.764;2022-10-26T09:20:53;10.85;;;5.82;;
65599;SDS011;52272;-29.642;-50.764;2022-10-26T09:23:49;7.18;;;5.03;;
65599;SDS011;52272;-29.642;-50.764;2022-10-26T09:27:07;11.15;;;5.57;;
65599;SDS011;52272;-29.642;-50.764;2022-10-26T09:29:32;8.93;;;5.72;;
65599;SDS011;52272;-29.642;-50.764;2022-10-26T09:32:16;14.05;;;6.57;;
65599;SDS011;52272;-29.642;-50.764;2022-10-26T09:35:03;10.40;;;5.75;;
65599;SDS011;52272;-29.642;-50.764;2022-10-26T09:37:49;10.77;;;5.90;;
65599;SDS011;52272;-29.642;-50.764;2022-10-26T09:40:27;7.63;;;5.72;;
65599;SDS011;52272;-29.642;-50.764;2022-10-26T09:43:13;8.82;;;5.57;;
65599;SDS011;52272;-29.642;-50.764;2022-10-26T09:45:51;10.30;;;5.55;;
65599;SDS011;52272;-29.642;-50.764;2022-10-26T09:51:11;9.75;;;5.50;;
65599;SDS011;52272;-29.642;-50.764;2022-10-26T09:53:41;9.80;;;4.88;;
65599;SDS011;52272;-29.642;-50.764;2022-10-26T09:56:12;8.32;;;5.20;;
65599;SDS011;52272;-29.642;-50.764;2022-10-26T10:01:28;7.97;;;4.75;;
65599;SDS011;52272;-29.642;-50.764;2022-10-26T10:06:43;6.43;;;4.30;;
65599;SDS011;52272;-29.642;-50.764;2022-10-26T10:09:18;8.82;;;5.00;;
65599;SDS011;52272;-29.642;-50.764;2022-10-26T10:11:53;9.10;;;4.75;;
65599;SDS011;52272;-29.642;-50.764;2022-10-26T10:14:57;4.63;;;3.88;;
65599;SDS011;52272;-29.642;-50.764;2022-10-26T10:17:25;8.23;;;4.80;;
65599;SDS011;52272;-29.642;-50.764;2022-10-26T10:19:55;6.38;;;3.55;;
65599;SDS011;52272;-29.642;-50.764;2022-10-26T10:23:02;5.80;;;3.60;;
65599;SDS011;52272;-29.642;-50.764;2022-10-26T10:25:38;5.63;;;3.22;;
65599;SDS011;52272;-29.642;-50.764;2022-10-26T10:28:21;5.70;;;3.30;;
65599;SDS011;52272;-29.642;-50.764;2022-10-26T10:30:53;5.07;;;3.28;;
65599;SDS011;52272;-29.642;-50.764;2022-10-26T10:33:31;7.75;;;3.08;;
65599;SDS011;52272;-29.642;-50.764;2022-10-26T10:36:07;3.25;;;2.80;;
65599;SDS011;52272;-29.642;-50.764;2022-10-26T10:38:49;5.28;;;3.00;;
65599;SDS011;52272;-29.642;-50.764;2022-10-26T10:41:26;4.32;;;3.13;;
65599;SDS011;52272;-29.642;-50.764;2022-10-26T10:44:05;5.03;;;2.78;;
65599;SDS011;52272;-29.642;-50.764;2022-10-26T10:46:36;3.58;;;3.05;;
65599;SDS011;52272;-29.642;-50.764;2022-10-26T10:49:18;4.35;;;2.78;;
65599;SDS011;52272;-29.642;-50.764;2022-10-26T10:51:53;6.60;;;3.08;;
65599;SDS011;52272;-29.642;-50.764;2022-10-26T10:54:34;6.22;;;3.60;;
65599;SDS011;52272;-29.642;-50.764;2022-10-26T11:00:02;4.05;;;3.00;;
65599;SDS011;52272;-29.642;-50.764;2022-10-26T11:06:35;4.82;;;2.88;;
65599;SDS011;52272;-29.642;-50.764;2022-10-26T11:08:56;5.43;;;2.72;;
65599;SDS011;52272;-29.642;-50.764;2022-10-26T11:11:47;4.72;;;2.70;;
65599;SDS011;52272;-29.642;-50.764;2022-10-26T11:14:29;4.32;;;3.00;;
65599;SDS011;52272;-29.642;-50.764;2022-10-26T11:17:22;6.82;;;3.30;;
65599;SDS011;52272;-29.642;-50.764;2022-10-26T11:20:20;10.68;;;3.90;;
65599;SDS011;52272;-29.642;-50.764;2022-10-26T11:23:03;5.07;;;3.13;;
65599;SDS011;52272;-29.642;-50.764;2022-10-26T11:25:56;10.10;;;4.90;;
65599;SDS011;52272;-29.642;-50.764;2022-10-26T11:28:56;8.68;;;4.25;;
65599;SDS011;52272;-29.642;-50.764;2022-10-26T11:36:57;10.77;;;4.15;;
65599;SDS011;52272;-29.642;-50.764;2022-10-26T11:40:02;8.18;;;4.05;;
65599;SDS011;52272;-29.642;-50.764;2022-10-26T11:42:51;5.97;;;3.35;;
65599;SDS011;52272;-29.642;-50.764;2022-10-26T11:45:56;5.82;;;3.58;;
65599;SDS011;52272;-29.642;-50.764;2022-10-26T11:54:11;6.60;;;3.50;;
65599;SDS011;52272;-29.642;-50.764;2022-10-26T11:56:49;6.25;;;3.30;;
65599;SDS011;52272;-29.642;-50.764;2022-10-26T11:59:24;7.13;;;3.85;;
65599;SDS011;52272;-29.642;-50.764;2022-10-26T12:04:34;6.07;;;3.33;;
65599;SDS011;52272;-29.642;-50.764;2022-10-26T12:07:08;3.83;;;2.97;;
65599;SDS011;52272;-29.642;-50.764;2022-10-26T12:09:45;13.93;;;3.15;;
65599;SDS011;52272;-29.642;-50.764;2022-10-26T12:17:49;6.35;;;3.83;;
65599;SDS011;52272;-29.642;-50.764;2022-10-26T12:23:17;8.63;;;3.17;;
65599;SDS011;52272;-29.642;-50.764;2022-10-26T12:34:14;5.82;;;3.25;;
65599;SDS011;52272;-29.642;-50.764;2022-10-26T12:43:36;3.90;;;3.10;;
65599;SDS011;52272;-29.642;-50.764;2022-10-26T12:48:43;4.22;;;3.30;;
65599;SDS011;52272;-29.642;-50.764;2022-10-26T13:08:10;4.45;;;2.03;;
65599;SDS011;52272;-29.642;-50.764;2022-10-26T13:10:45;5.13;;;2.40;;
65599;SDS011;52272;-29.642;-50.764;2022-10-26T13:13:32;6.13;;;2.58;;
65599;SDS011;52272;-29.642;-50.764;2022-10-26T13:16:04;2.53;;;2.30;;
65599;SDS011;52272;-29.642;-50.764;2022-10-26T13:18:42;4.22;;;2.38;;
65599;SDS011;52272;-29.642;-50.764;2022-10-26T13:21:15;5.00;;;2.20;;
65599;SDS011;52272;-29.642;-50.764;2022-10-26T13:26:26;4.55;;;2.10;;
65599;SDS011;52272;-29.642;-50.764;2022-10-26T13:29:00;3.10;;;2.28;;
65599;SDS011;52272;-29.642;-50.764;2022-10-26T13:36:41;2.60;;;2.15;;
65599;SDS011;52272;-29.642;-50.764;2022-10-26T13:39:23;3.53;;;1.98;;
65599;SDS011;52272;-29.642;-50.764;2022-10-26T13:41:54;3.13;;;2.10;;
65599;SDS011;52272;-29.642;-50.764;2022-10-26T13:50:18;3.10;;;2.00;;
65599;SDS011;52272;-29.642;-50.764;2022-10-26T13:52:58;2.42;;;2.00;;
65599;SDS011;52272;-29.642;-50.764;2022-10-26T13:55:42;4.60;;;2.25;;
65599;SDS011;52272;-29.642;-50.764;2022-10-26T14:03:44;4.60;;;2.28;;
65599;SDS011;52272;-29.642;-50.764;2022-10-26T14:06:28;2.47;;;2.22;;
65599;SDS011;52272;-29.642;-50.764;2022-10-26T14:09:11;4.45;;;1.98;;
65599;SDS011;52272;-29.642;-50.764;2022-10-26T14:11:51;4.75;;;2.15;;
65599;SDS011;52272;-29.642;-50.764;2022-10-26T14:14:30;3.42;;;1.73;;
65599;SDS011;52272;-29.642;-50.764;2022-10-26T14:17:03;2.00;;;1.75;;
65599;SDS011;52272;-29.642;-50.764;2022-10-26T14:22:14;2.78;;;1.92;;
65599;SDS011;52272;-29.642;-50.764;2022-10-26T14:24:59;2.85;;;2.00;;
65599;SDS011;52272;-29.642;-50.764;2022-10-26T14:27:31;2.47;;;1.60;;
65599;SDS011;52272;-29.642;-50.764;2022-10-26T14:32:58;2.65;;;1.65;;
65599;SDS011;52272;-29.642;-50.764;2022-10-26T14:35:29;3.65;;;2.00;;
65599;SDS011;52272;-29.642;-50.764;2022-10-26T14:38:05;3.22;;;1.75;;
65599;SDS011;52272;-29.642;-50.764;2022-10-26T14:40:45;4.00;;;1.98;;
65599;SDS011;52272;-29.642;-50.764;2022-10-26T14:43:19;2.47;;;2.05;;
65599;SDS011;52272;-29.642;-50.764;2022-10-26T14:45:51;3.65;;;1.80;;
65599;SDS011;52272;-29.642;-50.764;2022-10-26T14:48:27;2.33;;;1.77;;
65599;SDS011;52272;-29.642;-50.764;2022-10-26T14:51:20;4.28;;;1.90;;
65599;SDS011;52272;-29.642;-50.764;2022-10-26T14:53:57;4.20;;;1.80;;
65599;SDS011;52272;-29.642;-50.764;2022-10-26T14:59:39;2.17;;;2.00;;
65599;SDS011;52272;-29.642;-50.764;2022-10-26T15:05:00;2.00;;;1.80;;
65599;SDS011;52272;-29.642;-50.764;2022-10-26T15:07:49;1.75;;;1.45;;
65599;SDS011;52272;-29.642;-50.764;2022-10-26T15:13:07;2.25;;;1.77;;
65599;SDS011;52272;-29.642;-50.764;2022-10-26T15:18:38;2.10;;;1.90;;
65599;SDS011;52272;-29.642;-50.764;2022-10-26T15:23:56;3.45;;;1.60;;
65599;SDS011;52272;-29.642;-50.764;2022-10-26T15:26:28;2.35;;;1.63;;
65599;SDS011;52272;-29.642;-50.764;2022-10-26T15:28:59;3.92;;;1.60;;
65599;SDS011;52272;-29.642;-50.764;2022-10-26T15:31:30;2.75;;;1.75;;
65599;SDS011;52272;-29.642;-50.764;2022-10-26T15:36:32;2.15;;;1.60;;
65599;SDS011;52272;-29.642;-50.764;2022-10-26T15:39:04;2.50;;;1.95;;
65599;SDS011;52272;-29.642;-50.764;2022-10-26T15:41:37;2.95;;;1.50;;
65599;SDS011;52272;-29.642;-50.764;2022-10-26T15:44:15;2.13;;;1.50;;
65599;SDS011;52272;-29.642;-50.764;2022-10-26T15:46:48;2.78;;;1.48;;
65599;SDS011;52272;-29.642;-50.764;2022-10-26T15:49:21;5.00;;;1.88;;
65599;SDS011;52272;-29.642;-50.764;2022-10-26T15:51:52;3.80;;;1.80;;
65599;SDS011;52272;-29.642;-50.764;2022-10-26T15:54:23;2.58;;;1.58;;
65599;SDS011;52272;-29.642;-50.764;2022-10-26T15:56:54;2.85;;;1.90;;
65599;SDS011;52272;-29.642;-50.764;2022-10-26T15:59:24;1.70;;;1.60;;
65599;SDS011;52272;-29.642;-50.764;2022-10-26T16:01:55;2.40;;;1.75;;
65599;SDS011;52272;-29.642;-50.764;2022-10-26T16:04:25;2.90;;;1.70;;
65599;SDS011;52272;-29.642;-50.764;2022-10-26T16:06:55;4.90;;;1.70;;
65599;SDS011;52272;-29.642;-50.764;2022-10-26T16:09:29;1.95;;;1.67;;
65599;SDS011;52272;-29.642;-50.764;2022-10-26T16:11:59;1.70;;;1.58;;
65599;SDS011;52272;-29.642;-50.764;2022-10-26T16:14:30;5.20;;;1.90;;
65599;SDS011;52272;-29.642;-50.764;2022-10-26T16:17:20;2.85;;;1.60;;
65599;SDS011;52272;-29.642;-50.764;2022-10-26T16:19:51;2.60;;;1.60;;
65599;SDS011;52272;-29.642;-50.764;2022-10-26T16:22:20;3.22;;;1.63;;
65599;SDS011;52272;-29.642;-50.764;2022-10-26T16:24:51;3.00;;;1.77;;
65599;SDS011;52272;-29.642;-50.764;2022-10-26T16:27:21;4.35;;;1.75;;
65599;SDS011;52272;-29.642;-50.764;2022-10-26T16:29:51;2.38;;;1.50;;
65599;SDS011;52272;-29.642;-50.764;2022-10-26T16:32:21;3.40;;;1.60;;
65599;SDS011;52272;-29.642;-50.764;2022-10-26T16:34:52;2.08;;;1.40;;
65599;SDS011;52272;-29.642;-50.764;2022-10-26T16:37:22;1.83;;;1.38;;
65599;SDS011;52272;-29.642;-50.764;2022-10-26T16:39:52;4.07;;;1.73;;
65599;SDS011;52272;-29.642;-50.764;2022-10-26T16:42:22;1.90;;;1.75;;
65599;SDS011;52272;-29.642;-50.764;2022-10-26T16:44:53;1.98;;;1.50;;
65599;SDS011;52272;-29.642;-50.764;2022-10-26T16:47:31;2.85;;;1.80;;
65599;SDS011;52272;-29.642;-50.764;2022-10-26T16:50:06;6.90;;;2.40;;
65599;SDS011;52272;-29.642;-50.764;2022-10-26T16:52:37;2.30;;;1.60;;
65599;SDS011;52272;-29.642;-50.764;2022-10-26T16:55:08;3.05;;;1.70;;
65599;SDS011;52272;-29.642;-50.764;2022-10-26T16:57:38;4.43;;;1.90;;
65599;SDS011;52272;-29.642;-50.764;2022-10-26T17:00:09;2.88;;;1.80;;
65599;SDS011;52272;-29.642;-50.764;2022-10-26T17:02:39;3.75;;;1.80;;
65599;SDS011;52272;-29.642;-50.764;2022-10-26T17:05:09;3.00;;;1.75;;
65599;SDS011;52272;-29.642;-50.764;2022-10-26T17:07:40;5.10;;;1.75;;
65599;SDS011;52272;-29.642;-50.764;2022-10-26T17:10:10;1.92;;;1.42;;
65599;SDS011;52272;-29.642;-50.764;2022-10-26T17:12:40;3.05;;;1.70;;
65599;SDS011;52272;-29.642;-50.764;2022-10-26T17:15:11;2.78;;;1.83;;
65599;SDS011;52272;-29.642;-50.764;2022-10-26T17:17:46;2.90;;;1.65;;
65599;SDS011;52272;-29.642;-50.764;2022-10-26T17:20:16;1.67;;;1.58;;
65599;SDS011;52272;-29.642;-50.764;2022-10-26T17:22:47;2.45;;;1.80;;
65599;SDS011;52272;-29.642;-50.764;2022-10-26T17:25:18;5.10;;;1.90;;
65599;SDS011;52272;-29.642;-50.764;2022-10-26T17:27:48;1.70;;;1.60;;
65599;SDS011;52272;-29.642;-50.764;2022-10-26T17:30:19;3.20;;;1.60;;
65599;SDS011;52272;-29.642;-50.764;2022-10-26T17:32:48;2.90;;;1.80;;
65599;SDS011;52272;-29.642;-50.764;2022-10-26T17:35:20;1.60;;;1.50;;
65599;SDS011;52272;-29.642;-50.764;2022-10-26T17:37:50;2.85;;;1.70;;
65599;SDS011;52272;-29.642;-50.764;2022-10-26T17:40:21;2.75;;;1.60;;
65599;SDS011;52272;-29.642;-50.764;2022-10-26T17:42:52;3.60;;;1.90;;